Time;durP1;ratioP1;P1;durP2;ratioP2;P2;SDS_P1;SDS_P2;PMS_P1;PMS_P2;Temp;Humidity;BMP_temperature;BMP_pressure;BME280_temperature;BME280_humidity;BME280_pressure;Samples;Min_cycle;Max_cycle;Signal;HPM_P1;HPM_P2
2021/07/30 00:01:00;;;;;;;7.30;4.00;;;;;;;14.71;100.00;100244.72;4955048;28;20218;-76
2021/07/30 00:03:28;;;;;;;8.47;3.67;;;;;;;14.69;100.00;100247.75;4940695;29;20279;-73
2021/07/30 00:05:56;;;;;;;6.82;4.13;;;;;;;14.77;100.00;100247.03;4969454;28;20659;-76
2021/07/30 00:08:21;;;;;;;6.63;4.03;;;;;;;14.75;100.00;100243.78;4952513;29;20184;-75
2021/07/30 00:10:49;;;;;;;5.57;3.83;;;;;;;14.67;100.00;100246.47;4953065;29;20232;-73
2021/07/30 00:13:15;;;;;;;7.67;4.00;;;;;;;14.76;100.00;100244.59;4940120;29;20238;-75
2021/07/30 00:15:43;;;;;;;5.27;3.47;;;;;;;14.62;100.00;100241.09;4955035;28;20227;-75
2021/07/30 00:18:09;;;;;;;5.15;3.67;;;;;;;14.56;100.00;100244.25;4920464;29;20211;-72
2021/07/30 00:20:34;;;;;;;5.13;3.93;;;;;;;14.41;100.00;100242.69;4951350;28;20278;-75
2021/07/30 00:23:05;;;;;;;6.43;3.60;;;;;;;14.33;100.00;100246.13;4952644;29;20242;-75
2021/07/30 00:25:33;;;;;;;4.33;3.87;;;;;;;14.24;100.00;100252.63;4953905;28;20223;-75
2021/07/30 00:27:58;;;;;;;5.70;4.00;;;;;;;14.20;100.00;100239.91;4950261;28;20222;-75
2021/07/30 00:30:27;;;;;;;6.83;4.40;;;;;;;14.10;100.00;100238.19;4915688;28;20232;-74
2021/07/30 00:32:54;;;;;;;7.13;3.70;;;;;;;14.23;100.00;100246.34;4945586;29;20198;-74
2021/07/30 00:35:20;;;;;;;6.27;3.90;;;;;;;14.27;100.00;100241.09;4922364;28;20191;-74
2021/07/30 00:37:48;;;;;;;6.50;3.57;;;;;;;14.22;100.00;100232.19;4934725;29;20207;-74
2021/07/30 00:40:17;;;;;;;5.83;3.90;;;;;;;14.03;100.00;100245.19;4949955;28;20190;-74
2021/07/30 00:42:52;;;;;;;4.67;3.90;;;;;;;13.92;100.00;100233.63;4947109;29;20203;-74
2021/07/30 00:45:20;;;;;;;8.77;4.23;;;;;;;13.94;100.00;100238.78;4937965;28;20246;-74
2021/07/30 00:47:50;;;;;;;5.77;4.20;;;;;;;13.93;100.00;100239.88;4941779;28;20290;-74
2021/07/30 00:50:16;;;;;;;7.03;4.47;;;;;;;13.95;100.00;100240.38;4949921;28;20302;-73
2021/07/30 00:52:42;;;;;;;7.32;4.07;;;;;;;13.95;100.00;100237.66;4961260;28;20671;-73
2021/07/30 00:55:08;;;;;;;5.93;3.77;;;;;;;14.12;100.00;100237.84;4945609;29;20195;-73
2021/07/30 00:57:34;;;;;;;8.23;4.40;;;;;;;14.10;100.00;100240.91;4927211;29;20211;-74
2021/07/30 01:00:00;;;;;;;6.30;4.20;;;;;;;14.01;100.00;100231.81;4968709;28;20215;-74
2021/07/30 01:02:25;;;;;;;8.63;3.93;;;;;;;13.91;100.00;100233.91;4945806;29;20278;-74
2021/07/30 01:04:56;;;;;;;5.43;4.37;;;;;;;14.01;100.00;100236.41;4934483;29;20553;-73
2021/07/30 01:07:24;;;;;;;6.17;3.93;;;;;;;13.81;100.00;100225.94;4934969;28;20230;-72
2021/07/30 01:09:51;;;;;;;6.73;4.30;;;;;;;13.96;100.00;100228.34;4949821;29;20649;-75
2021/07/30 01:12:20;;;;;;;10.10;4.47;;;;;;;14.11;100.00;100236.25;4938734;28;20231;-74
2021/07/30 01:14:53;;;;;;;8.23;4.27;;;;;;;14.14;100.00;100230.16;4938161;29;20209;-73
2021/07/30 01:17:19;;;;;;;6.00;4.13;;;;;;;13.90;100.00;100235.03;4948371;28;20234;-76
2021/07/30 01:19:44;;;;;;;7.90;4.13;;;;;;;13.96;100.00;100226.44;4933842;29;20176;-73
2021/07/30 01:22:18;;;;;;;6.37;3.70;;;;;;;14.11;100.00;100230.78;4936216;28;20223;-75
2021/07/30 01:24:46;;;;;;;7.73;4.00;;;;;;;14.05;100.00;100230.09;4937991;29;20186;-72
2021/07/30 01:27:16;;;;;;;8.03;4.10;;;;;;;14.09;100.00;100236.56;4950062;28;20235;-73
2021/07/30 01:29:42;;;;;;;6.17;3.90;;;;;;;14.15;100.00;100234.53;4933920;29;20211;-74
2021/07/30 01:32:10;;;;;;;6.17;4.00;;;;;;;14.01;100.00;100233.69;4950117;29;20227;-74
2021/07/30 01:34:38;;;;;;;8.10;3.93;;;;;;;13.81;100.00;100231.41;4937395;29;20179;-74
2021/07/30 01:37:04;;;;;;;8.60;4.50;;;;;;;13.75;100.00;100232.59;4951875;28;20265;-74
2021/07/30 01:39:32;;;;;;;9.77;4.47;;;;;;;13.68;100.00;100234.94;4946474;28;20188;-73
2021/07/30 01:41:57;;;;;;;6.37;3.87;;;;;;;13.64;100.00;100231.16;4914401;29;20271;-74
2021/07/30 01:44:23;;;;;;;5.93;3.97;;;;;;;13.75;100.00;100227.13;4933672;29;20825;-74
2021/07/30 01:46:48;;;;;;;7.50;4.20;;;;;;;13.78;100.00;100232.00;4952263;28;20238;-74
2021/07/30 01:49:16;;;;;;;5.60;4.40;;;;;;;13.80;100.00;100228.97;4936667;29;20225;-74
2021/07/30 01:51:44;;;;;;;7.50;4.30;;;;;;;13.83;100.00;100229.16;4933166;28;20219;-74
2021/07/30 01:54:14;;;;;;;10.43;4.30;;;;;;;13.73;100.00;100231.28;4937079;29;20274;-74
2021/07/30 01:56:45;;;;;;;6.87;4.03;;;;;;;13.65;100.00;100227.34;4952028;28;20309;-74
2021/07/30 01:59:11;;;;;;;9.80;4.07;;;;;;;13.72;100.00;100227.75;4933345;29;20190;-74
2021/07/30 02:01:36;;;;;;;7.47;4.30;;;;;;;13.67;100.00;100233.28;4949176;28;20231;-74
2021/07/30 02:04:02;;;;;;;6.47;4.10;;;;;;;13.64;100.00;100233.88;4936966;29;20187;-74
2021/07/30 02:06:30;;;;;;;8.80;4.07;;;;;;;13.67;100.00;100230.56;4953404;28;20294;-74
2021/07/30 02:09:02;;;;;;;6.07;3.80;;;;;;;13.73;100.00;100228.53;4941590;29;20290;-74
2021/07/30 02:11:27;;;;;;;7.20;4.00;;;;;;;13.86;100.00;100229.38;4932591;29;20667;-74
2021/07/30 02:16:39;;;;;;;6.20;3.87;;;;;;;13.95;100.00;100221.25;4951813;28;20236;-74
2021/07/30 02:19:10;;;;;;;5.43;3.90;;;;;;;14.02;100.00;100232.63;4954181;28;20195;-74
2021/07/30 02:21:35;;;;;;;6.53;4.00;;;;;;;14.07;100.00;100221.59;4913869;29;20618;-74
2021/07/30 02:24:01;;;;;;;7.23;3.97;;;;;;;13.97;100.00;100219.03;4932513;29;20186;-74
2021/07/30 02:26:33;;;;;;;8.20;3.83;;;;;;;13.90;100.00;100224.13;4935937;28;20237;-74
2021/07/30 02:28:59;;;;;;;3.83;3.50;;;;;;;13.78;100.00;100226.53;4943815;29;20215;-74
2021/07/30 02:31:24;;;;;;;7.57;4.10;;;;;;;13.83;100.00;100220.97;4932211;28;20235;-74
2021/07/30 02:33:52;;;;;;;6.90;4.10;;;;;;;13.83;100.00;100223.72;4936509;29;20183;-74
2021/07/30 02:36:20;;;;;;;7.30;4.23;;;;;;;13.85;100.00;100221.47;4935864;28;20799;-74
2021/07/30 02:38:49;;;;;;;7.50;4.10;;;;;;;13.86;100.00;100217.63;4927399;29;20192;-76
2021/07/30 02:41:17;;;;;;;6.67;3.73;;;;;;;13.90;100.00;100229.56;4928568;29;20232;-74
2021/07/30 02:43:48;;;;;;;5.97;4.00;;;;;;;13.88;100.00;100220.84;4938155;28;20216;-75
2021/07/30 02:46:19;;;;;;;6.53;3.67;;;;;;;13.88;100.00;100224.41;4952362;28;20282;-74
2021/07/30 02:48:45;;;;;;;6.00;4.00;;;;;;;13.77;100.00;100230.34;4932857;29;20616;-74
2021/07/30 02:51:12;;;;;;;8.83;4.20;;;;;;;13.72;100.00;100221.50;4932278;28;20692;-74
2021/07/30 02:53:38;;;;;;;6.93;4.23;;;;;;;13.60;100.00;100219.22;4934465;29;20654;-74
2021/07/30 02:56:04;;;;;;;9.23;4.00;;;;;;;13.67;100.00;100222.38;4919785;29;20236;-75
2021/07/30 02:58:32;;;;;;;6.43;4.07;;;;;;;13.74;100.00;100225.53;4950751;28;20187;-73
2021/07/30 03:00:59;;;;;;;5.93;4.00;;;;;;;13.74;100.00;100228.25;4947956;29;20777;-74
2021/07/30 03:03:25;;;;;;;7.67;3.70;;;;;;;13.76;100.00;100223.28;4932771;29;20242;-73
2021/07/30 03:05:55;;;;;;;6.33;3.90;;;;;;;13.58;100.00;100218.72;4966206;28;20222;-74
2021/07/30 03:08:24;;;;;;;4.93;3.80;;;;;;;13.60;100.00;100216.50;4919949;29;20559;-75
2021/07/30 03:10:50;;;;;;;6.03;4.13;;;;;;;13.54;100.00;100217.72;4917823;29;20219;-73
2021/07/30 03:13:15;;;;;;;7.07;4.33;;;;;;;13.62;100.00;100222.47;4948587;29;20246;-73
2021/07/30 03:15:43;;;;;;;7.53;4.30;;;;;;;13.49;100.00;100228.72;4963839;28;20226;-73
2021/07/30 03:18:09;;;;;;;6.50;4.60;;;;;;;13.42;100.00;100226.69;4935310;29;20659;-73
2021/07/30 03:20:37;;;;;;;6.40;4.10;;;;;;;13.40;100.00;100223.47;4916285;29;20697;-74
2021/07/30 03:23:02;;;;;;;7.83;4.43;;;;;;;13.43;100.00;100217.41;4932884;29;20525;-74
2021/07/30 03:25:28;;;;;;;7.60;4.40;;;;;;;13.42;100.00;100221.25;4964343;28;20245;-73
2021/07/30 03:27:56;;;;;;;5.87;4.27;;;;;;;13.49;100.00;100226.00;4955214;28;20575;-74
2021/07/30 03:30:24;;;;;;;8.73;4.30;;;;;;;13.40;100.00;100218.81;4943253;28;20287;-73
2021/07/30 03:32:50;;;;;;;6.53;4.20;;;;;;;13.56;100.00;100217.44;4936584;29;20172;-73
2021/07/30 03:35:16;;;;;;;9.07;4.50;;;;;;;13.47;100.00;100227.41;4961130;28;20210;-73
2021/07/30 03:37:45;;;;;;;7.80;4.20;;;;;;;13.61;100.00;100217.34;4939143;28;20770;-74
2021/07/30 03:40:11;;;;;;;8.07;4.60;;;;;;;13.46;100.00;100228.53;4927205;29;20181;-72
2021/07/30 03:42:39;;;;;;;7.90;4.60;;;;;;;13.42;100.00;100224.78;4934953;29;20662;-74
2021/07/30 03:45:08;;;;;;;6.87;4.53;;;;;;;13.52;100.00;100221.88;4950368;28;20677;-73
2021/07/30 03:47:35;;;;;;;9.87;4.20;;;;;;;13.47;100.00;100225.50;4932273;29;20239;-73
2021/07/30 03:50:01;;;;;;;7.40;4.00;;;;;;;13.58;100.00;100217.94;4944172;28;20222;-71
2021/07/30 03:52:29;;;;;;;10.87;4.10;;;;;;;13.51;100.00;100225.69;4938429;29;20223;-73
2021/07/30 03:54:57;;;;;;;6.77;4.10;;;;;;;13.63;100.00;100218.66;4920908;29;20176;-74
2021/07/30 03:57:24;;;;;;;5.47;4.03;;;;;;;13.80;100.00;100229.75;4935521;28;20287;-75
2021/07/30 03:59:58;;;;;;;7.97;4.33;;;;;;;13.78;100.00;100217.53;4935442;29;20601;-73
2021/07/30 04:02:28;;;;;;;5.83;4.07;;;;;;;13.96;100.00;100217.44;4946708;29;20226;-73
2021/07/30 04:04:53;;;;;;;6.30;3.77;;;;;;;14.09;100.00;100224.84;4914732;29;20219;-73
2021/07/30 04:07:21;;;;;;;7.93;5.03;;;;;;;13.89;100.00;100219.75;4947470;28;20777;-75
2021/07/30 04:09:46;;;;;;;9.80;4.50;;;;;;;13.81;100.00;100214.19;4918170;29;20212;-74
2021/07/30 04:12:12;;;;;;;7.33;4.33;;;;;;;13.97;100.00;100210.84;4934849;29;20708;-73
2021/07/30 04:14:40;;;;;;;7.33;4.10;;;;;;;13.81;100.00;100220.47;4933833;29;20692;-74
2021/07/30 04:17:07;;;;;;;5.93;3.73;;;;;;;13.81;100.00;100220.47;4918048;29;20262;-74
2021/07/30 04:19:35;;;;;;;8.73;4.03;;;;;;;13.80;100.00;100218.03;4950649;29;20188;-74
2021/07/30 04:22:05;;;;;;;8.67;4.07;;;;;;;13.82;100.00;100215.81;4968574;28;20223;-74
2021/07/30 04:24:31;;;;;;;8.80;4.10;;;;;;;13.84;100.00;100217.13;4922231;29;20250;-75
2021/07/30 04:27:01;;;;;;;7.53;4.07;;;;;;;13.87;100.00;100216.53;4936685;29;20235;-73
2021/07/30 04:29:26;;;;;;;9.77;4.40;;;;;;;13.84;100.00;100214.38;4950532;29;20219;-74
2021/07/30 04:31:52;;;;;;;7.10;4.13;;;;;;;13.93;100.00;100215.28;4953698;28;20233;-74
2021/07/30 04:34:19;;;;;;;9.37;4.17;;;;;;;14.01;100.00;100220.91;4938080;28;20660;-74
2021/07/30 04:36:45;;;;;;;7.53;4.40;;;;;;;14.11;100.00;100222.59;4923132;29;20231;-74
2021/07/30 04:39:13;;;;;;;7.50;4.60;;;;;;;14.11;100.00;100220.66;4950558;29;20191;-77
2021/07/30 04:41:39;;;;;;;62.10;51.50;;;;;;;14.23;100.00;100219.03;4953963;28;20597;-73
2021/07/30 04:44:08;;;;;;;24.33;17.23;;;;;;;14.25;100.00;100205.88;4924034;29;20181;-73
2021/07/30 04:46:34;;;;;;;18.27;13.30;;;;;;;14.40;100.00;100202.81;4930906;29;20617;-74
2021/07/30 04:48:59;;;;;;;10.10;7.47;;;;;;;14.42;100.00;100210.69;4902772;29;20195;-72
2021/07/30 04:51:25;;;;;;;11.43;3.90;;;;;;;14.49;100.00;100216.56;4941494;28;20224;-73
2021/07/30 04:53:51;;;;;;;8.27;4.10;;;;;;;14.47;100.00;100219.59;4900317;29;20729;-72
2021/07/30 04:56:27;;;;;;;8.50;3.90;;;;;;;14.45;100.00;100210.91;4940393;28;20230;-74
2021/07/30 04:58:52;;;;;;;9.20;4.17;;;;;;;14.47;100.00;100210.56;4909316;29;20557;-74
2021/07/30 05:01:18;;;;;;;8.47;4.07;;;;;;;14.65;100.00;100215.88;4938722;29;20215;-73
2021/07/30 05:03:46;;;;;;;6.77;4.13;;;;;;;14.78;100.00;100210.38;4924465;29;20188;-73
2021/07/30 05:06:15;;;;;;;7.63;4.90;;;;;;;14.89;100.00;100217.22;4933074;28;20223;-73
2021/07/30 05:08:41;;;;;;;8.55;4.32;;;;;;;15.03;100.00;100207.78;4948425;29;20666;-74
2021/07/30 05:11:11;;;;;;;8.77;4.53;;;;;;;15.14;100.00;100206.44;4932183;29;20294;-73
2021/07/30 05:13:40;;;;;;;7.05;4.85;;;;;;;15.36;100.00;100206.41;4948429;29;20254;-74
2021/07/30 05:16:14;;;;;;;8.80;4.15;;;;;;;15.58;100.00;100198.94;4919642;29;20222;-72
2021/07/30 05:18:42;;;;;;;9.57;4.35;;;;;;;15.53;100.00;100206.50;4919562;29;20195;-72
2021/07/30 05:21:14;;;;;;;9.48;4.10;;;;;;;15.52;100.00;100204.91;4919675;29;20215;-72
2021/07/30 05:23:43;;;;;;;6.03;4.38;;;;;;;15.57;100.00;100213.78;4917507;29;20271;-75
2021/07/30 05:26:09;;;;;;;8.52;4.00;;;;;;;15.74;100.00;100204.84;4933800;28;20223;-71
2021/07/30 05:28:34;;;;;;;7.07;4.30;;;;;;;15.73;100.00;100205.94;4933018;29;20580;-73
2021/07/30 05:31:00;;;;;;;7.55;4.35;;;;;;;15.70;100.00;100206.59;4900939;29;20282;-72
2021/07/30 05:33:26;;;;;;;7.72;4.68;;;;;;;15.77;100.00;100212.41;4939905;29;20195;-73
2021/07/30 05:35:52;;;;;;;5.72;4.13;;;;;;;15.77;100.00;100207.75;4925372;29;20303;-73
2021/07/30 05:38:20;;;;;;;17.38;10.23;;;;;;;15.80;100.00;100207.09;4910131;29;20785;-72
2021/07/30 05:40:45;;;;;;;7.15;4.53;;;;;;;16.06;100.00;100211.56;4932864;29;20216;-73
2021/07/30 05:43:14;;;;;;;8.55;4.85;;;;;;;16.17;100.00;100212.84;4948800;28;20553;-75
2021/07/30 05:45:40;;;;;;;6.20;4.45;;;;;;;16.14;100.00;100213.50;4929649;29;20230;-73
2021/07/30 05:48:07;;;;;;;6.63;4.10;;;;;;;16.15;100.00;100209.63;4948446;28;20242;-73
2021/07/30 05:50:34;;;;;;;7.40;4.00;;;;;;;16.28;100.00;100211.44;4931167;29;20259;-74
2021/07/30 05:53:00;;;;;;;7.38;4.25;;;;;;;16.55;100.00;100222.94;4919278;29;20168;-74
2021/07/30 05:55:26;;;;;;;7.18;4.38;;;;;;;16.57;100.00;100213.28;4933036;28;20309;-74
2021/07/30 05:57:55;;;;;;;6.70;4.20;;;;;;;16.68;100.00;100213.75;4932724;29;20262;-74
2021/07/30 06:00:23;;;;;;;8.13;4.40;;;;;;;16.81;100.00;100213.59;4932017;28;20641;-73
2021/07/30 06:02:54;;;;;;;9.05;4.82;;;;;;;16.80;100.00;100211.97;4952315;29;20186;-73
2021/07/30 06:05:19;;;;;;;6.88;4.13;;;;;;;16.76;100.00;100211.00;4967552;28;20189;-74
2021/07/30 06:07:45;;;;;;;9.18;4.43;;;;;;;16.86;100.00;100210.66;4917406;29;20697;-73
2021/07/30 06:10:11;;;;;;;8.20;4.53;;;;;;;16.89;100.00;100207.28;4933899;28;20298;-73
2021/07/30 06:12:37;;;;;;;11.85;5.65;;;;;;;16.92;100.00;100209.38;4941323;29;20268;-73
2021/07/30 06:15:02;;;;;;;9.38;4.40;;;;;;;17.17;100.00;100194.84;4920396;29;20187;-72
2021/07/30 06:17:33;;;;;;;7.57;4.10;;;;;;;17.29;100.00;100204.03;4945540;28;20723;-72
2021/07/30 06:20:01;;;;;;;8.50;4.30;;;;;;;17.42;100.00;100206.56;4932919;29;20234;-74
2021/07/30 06:22:26;;;;;;;8.40;3.85;;;;;;;17.61;100.00;100200.69;4951710;28;20620;-73
2021/07/30 06:24:52;;;;;;;7.93;4.10;;;;;;;17.50;100.00;100200.22;4953247;28;20206;-73
2021/07/30 06:27:19;;;;;;;7.85;3.88;;;;;;;17.59;100.00;100191.97;4948524;28;20223;-73
2021/07/30 06:29:45;;;;;;;7.75;4.00;;;;;;;17.84;98.85;100195.41;4933243;29;20251;-75
2021/07/30 06:32:12;;;;;;;6.82;3.83;;;;;;;17.95;97.84;100195.84;4934356;28;20235;-74
2021/07/30 06:34:40;;;;;;;7.15;3.58;;;;;;;17.98;98.54;100204.22;4937176;29;20194;-73
2021/07/30 06:37:06;;;;;;;7.10;3.53;;;;;;;18.03;97.06;100203.25;4935050;28;20223;-75
2021/07/30 06:39:32;;;;;;;5.20;3.65;;;;;;;18.12;93.54;100190.28;4948998;29;20281;-75
2021/07/30 06:42:00;;;;;;;6.65;3.50;;;;;;;18.10;93.37;100198.84;4949092;29;20226;-74
2021/07/30 06:44:27;;;;;;;7.90;3.97;;;;;;;18.32;92.27;100195.81;4951862;29;20187;-72
2021/07/30 06:46:55;;;;;;;8.43;3.83;;;;;;;18.40;90.71;100197.69;4967718;28;20273;-73
2021/07/30 06:49:21;;;;;;;9.32;3.85;;;;;;;18.45;90.46;100198.28;4936149;29;20264;-73
2021/07/30 06:51:51;;;;;;;7.22;3.85;;;;;;;18.41;89.20;100194.63;4947969;29;20228;-75
2021/07/30 06:54:17;;;;;;;5.10;3.42;;;;;;;18.43;89.58;100197.81;4964730;28;20190;-77
2021/07/30 06:56:46;;;;;;;10.00;4.20;;;;;;;18.61;86.80;100207.56;4952989;28;20289;-76
2021/07/30 06:59:12;;;;;;;7.57;3.65;;;;;;;18.58;88.77;100205.47;4958901;28;20184;-73
2021/07/30 07:01:41;;;;;;;6.15;3.55;;;;;;;18.68;87.18;100203.13;4955055;29;20609;-74
2021/07/30 07:04:09;;;;;;;6.65;3.75;;;;;;;18.72;87.16;100195.03;4953152;28;20214;-75
2021/07/30 07:06:35;;;;;;;8.15;3.83;;;;;;;18.81;87.66;100191.06;4976559;28;20245;-75
2021/07/30 07:09:05;;;;;;;7.50;3.60;;;;;;;19.00;83.79;100191.38;4950404;29;20183;-74
2021/07/30 07:11:31;;;;;;;6.28;3.35;;;;;;;19.03;82.08;100196.22;4956038;29;20223;-73
2021/07/30 07:13:58;;;;;;;5.65;3.30;;;;;;;19.05;79.20;100182.94;4964324;28;20221;-73
2021/07/30 07:16:27;;;;;;;7.18;3.15;;;;;;;19.06;78.86;100196.31;4939177;28;20626;-73
2021/07/30 07:18:53;;;;;;;6.65;3.50;;;;;;;19.11;78.60;100196.13;4947148;28;20195;-74
2021/07/30 07:21:21;;;;;;;5.22;3.40;;;;;;;19.24;77.45;100189.50;4950643;29;20238;-73
2021/07/30 07:23:50;;;;;;;9.18;3.33;;;;;;;19.17;76.13;100191.22;4944657;29;20209;-72
2021/07/30 07:26:16;;;;;;;6.88;3.47;;;;;;;19.22;75.83;100194.56;4955900;28;20280;-75
2021/07/30 07:28:42;;;;;;;5.45;3.22;;;;;;;19.32;77.12;100197.69;4961635;28;20180;-74
2021/07/30 07:31:10;;;;;;;5.90;3.17;;;;;;;19.40;78.44;100182.22;4948540;28;20760;-73
2021/07/30 07:33:38;;;;;;;5.30;3.20;;;;;;;19.37;74.69;100191.16;4928272;29;20221;-76
2021/07/30 07:36:06;;;;;;;7.00;3.20;;;;;;;19.41;73.87;100192.06;4938739;28;20736;-73
2021/07/30 07:38:34;;;;;;;6.15;3.03;;;;;;;19.66;75.95;100189.81;4951512;29;20215;-72
2021/07/30 07:41:01;;;;;;;7.75;3.30;;;;;;;19.57;71.80;100190.28;4951711;28;20755;-74
2021/07/30 07:43:26;;;;;;;6.47;3.45;;;;;;;19.63;67.23;100178.66;4939065;29;20230;-74
2021/07/30 07:45:56;;;;;;;5.10;3.30;;;;;;;19.73;71.32;100184.56;4955013;28;20230;-75
2021/07/30 07:48:22;;;;;;;5.25;3.13;;;;;;;19.88;71.64;100174.81;4954277;28;20190;-75
2021/07/30 07:50:48;;;;;;;5.85;3.05;;;;;;;19.88;67.38;100188.63;4950855;29;20219;-74
2021/07/30 07:53:16;;;;;;;5.82;3.05;;;;;;;20.07;67.76;100173.06;4935941;29;20203;-74
2021/07/30 07:55:42;;;;;;;6.70;3.00;;;;;;;20.21;69.81;100176.28;4947419;28;20312;-75
2021/07/30 07:58:13;;;;;;;7.25;2.88;;;;;;;20.24;67.89;100176.41;4916340;29;20188;-76
2021/07/30 08:00:42;;;;;;;6.57;2.90;;;;;;;20.12;65.05;100179.16;4938194;28;20239;-76
2021/07/30 08:03:07;;;;;;;5.55;2.80;;;;;;;20.10;66.43;100184.22;4955051;28;20211;-74
2021/07/30 08:05:33;;;;;;;7.82;3.50;;;;;;;20.47;66.34;100178.34;4950048;28;20224;-74
2021/07/30 08:07:59;;;;;;;6.05;2.83;;;;;;;20.58;66.13;100186.91;4915994;29;20204;-75
2021/07/30 08:10:27;;;;;;;4.15;2.60;;;;;;;20.45;66.26;100186.13;4929413;28;20607;-73
2021/07/30 08:12:52;;;;;;;5.82;3.22;;;;;;;20.52;64.65;100183.59;4939235;29;20192;-72
2021/07/30 08:15:18;;;;;;;4.47;2.90;;;;;;;20.57;65.39;100188.09;4921694;28;20205;-75
2021/07/30 08:17:43;;;;;;;5.72;2.90;;;;;;;20.84;64.53;100188.94;4931955;29;20196;-73
2021/07/30 08:20:11;;;;;;;5.13;2.65;;;;;;;20.69;62.19;100190.81;4954668;28;20183;-72
2021/07/30 08:22:42;;;;;;;6.82;2.80;;;;;;;20.69;61.81;100194.38;4954395;28;20183;-73
2021/07/30 08:25:09;;;;;;;4.10;2.75;;;;;;;20.77;63.59;100184.34;4944280;28;20222;-75
2021/07/30 08:27:40;;;;;;;5.10;2.60;;;;;;;21.17;61.67;100194.19;4934627;29;20200;-74
2021/07/30 08:30:06;;;;;;;5.18;2.65;;;;;;;21.16;61.62;100187.09;4945361;28;20237;-76
2021/07/30 08:32:35;;;;;;;6.18;2.83;;;;;;;21.30;58.31;100191.84;4954083;28;20808;-74
2021/07/30 08:35:06;;;;;;;7.68;2.78;;;;;;;21.33;60.59;100201.38;4942538;29;20564;-75
2021/07/30 08:37:31;;;;;;;5.75;2.53;;;;;;;21.14;61.17;100194.91;4915735;29;20753;-76
2021/07/30 08:39:57;;;;;;;5.07;2.70;;;;;;;21.29;58.68;100181.13;4926320;28;20187;-73
2021/07/30 08:42:22;;;;;;;5.65;2.70;;;;;;;21.31;58.81;100192.63;4938014;29;20222;-75
2021/07/30 08:44:48;;;;;;;7.10;2.80;;;;;;;21.34;58.61;100192.72;4964824;28;20267;-74
2021/07/30 08:47:14;;;;;;;5.00;3.08;;;;;;;21.22;56.93;100194.75;4933899;29;20236;-74
2021/07/30 08:49:40;;;;;;;4.65;2.72;;;;;;;21.57;56.42;100190.19;4938124;28;20198;-72
2021/07/30 08:52:07;;;;;;;5.10;2.58;;;;;;;21.62;56.56;100188.78;4937460;29;20730;-73
2021/07/30 08:54:36;;;;;;;5.90;2.63;;;;;;;21.66;53.62;100186.09;4935943;29;20179;-76
2021/07/30 08:57:05;;;;;;;3.20;2.55;;;;;;;21.80;55.62;100190.03;4934312;29;20363;-75
2021/07/30 08:59:31;;;;;;;8.00;2.70;;;;;;;21.74;53.26;100179.59;4935633;29;20212;-75
2021/07/30 09:01:56;;;;;;;4.68;2.30;;;;;;;21.92;49.87;100181.63;4937281;28;20607;-74
2021/07/30 09:04:31;;;;;;;5.53;2.72;;;;;;;21.97;50.61;100172.25;4943259;29;20600;-73
2021/07/30 09:07:02;;;;;;;6.18;2.53;;;;;;;22.16;49.71;100175.91;4933786;29;20227;-74
2021/07/30 09:09:31;;;;;;;4.90;2.40;;;;;;;21.83;49.01;100177.44;4949816;29;20212;-74
2021/07/30 09:12:03;;;;;;;5.22;2.50;;;;;;;21.98;49.47;100176.63;4935010;29;20224;-73
2021/07/30 09:14:36;;;;;;;5.60;2.38;;;;;;;22.05;48.89;100169.28;4937163;29;20570;-74
2021/07/30 09:17:05;;;;;;;3.53;2.17;;;;;;;21.90;48.62;100172.09;4933971;29;20295;-73
2021/07/30 09:19:31;;;;;;;5.63;2.72;;;;;;;22.08;48.27;100169.38;4919306;29;20173;-72
2021/07/30 09:22:09;;;;;;;5.00;2.35;;;;;;;22.29;48.61;100172.69;4968681;28;20227;-73
2021/07/30 09:24:43;;;;;;;6.35;2.40;;;;;;;22.52;47.79;100162.53;4955842;29;20237;-73
2021/07/30 09:27:10;;;;;;;4.82;2.30;;;;;;;22.46;47.64;100169.50;4936583;29;20235;-73
2021/07/30 09:29:39;;;;;;;3.95;2.40;;;;;;;22.39;47.74;100172.13;4950822;29;20223;-75
2021/07/30 09:32:15;;;;;;;3.72;2.10;;;;;;;22.56;48.57;100164.22;4967733;28;20234;-76
2021/07/30 09:34:43;;;;;;;5.00;2.50;;;;;;;22.79;48.25;100157.56;4953528;28;20220;-76
2021/07/30 09:37:21;;;;;;;5.10;2.30;;;;;;;22.58;48.13;100156.34;4947570;28;20271;-75
2021/07/30 09:39:50;;;;;;;5.30;2.42;;;;;;;22.90;48.44;100164.16;4915743;29;20689;-74
2021/07/30 09:42:20;;;;;;;3.13;2.15;;;;;;;22.90;46.90;100166.16;4936378;28;20254;-73
2021/07/30 09:44:58;;;;;;;3.92;2.10;;;;;;;23.02;46.83;100161.25;4953380;28;20190;-73
2021/07/30 09:47:30;;;;;;;4.03;2.00;;;;;;;23.09;47.03;100153.06;4915454;29;20718;-73
2021/07/30 09:50:00;;;;;;;5.35;2.17;;;;;;;22.59;46.92;100157.16;4930134;29;20212;-75
2021/07/30 09:52:32;;;;;;;3.38;2.35;;;;;;;22.75;47.63;100155.13;4965495;28;20226;-73
2021/07/30 09:55:02;;;;;;;4.63;2.40;;;;;;;22.68;48.10;100150.22;4937686;29;20183;-75
2021/07/30 09:57:31;;;;;;;4.43;2.40;;;;;;;22.77;48.24;100152.78;4917455;29;20219;-74
2021/07/30 10:00:01;;;;;;;5.50;2.72;;;;;;;23.02;48.14;100146.59;4933734;29;20219;-75
2021/07/30 10:02:28;;;;;;;5.22;2.42;;;;;;;22.92;47.73;100150.75;4949506;28;20234;-73
2021/07/30 10:04:58;;;;;;;3.45;2.20;;;;;;;22.87;49.06;100148.25;4968800;28;20187;-75
2021/07/30 10:07:33;;;;;;;3.53;2.40;;;;;;;22.93;49.28;100141.28;4937250;29;20226;-72
2021/07/30 10:10:20;;;;;;;6.40;2.70;;;;;;;23.53;48.48;100137.66;4933207;29;20215;-73
2021/07/30 10:12:52;;;;;;;4.55;2.20;;;;;;;23.48;48.84;100126.84;4923770;29;20219;-74
2021/07/30 10:15:17;;;;;;;4.35;2.30;;;;;;;23.02;47.81;100143.81;4951721;28;20230;-74
2021/07/30 10:17:49;;;;;;;4.38;2.33;;;;;;;23.27;48.51;100130.06;4948969;28;20493;-75
2021/07/30 10:20:16;;;;;;;6.15;2.20;;;;;;;23.37;50.39;100131.41;4948562;28;20188;-75
2021/07/30 10:22:45;;;;;;;5.03;2.15;;;;;;;23.50;47.73;100121.72;4952309;29;20214;-74
2021/07/30 10:25:15;;;;;;;3.47;2.22;;;;;;;23.51;47.05;100112.25;4952027;28;20227;-73
2021/07/30 10:27:43;;;;;;;4.20;2.20;;;;;;;23.12;47.36;100118.28;4921494;29;20203;-72
2021/07/30 10:30:10;;;;;;;3.03;2.17;;;;;;;23.03;47.74;100112.97;4931274;29;20255;-73
2021/07/30 10:32:56;;;;;;;4.75;2.20;;;;;;;23.41;47.56;100115.66;4931931;29;20206;-72
2021/07/30 10:35:30;;;;;;;3.50;2.00;;;;;;;23.72;47.52;100096.81;4947266;28;20208;-73
2021/07/30 10:38:15;;;;;;;3.92;2.28;;;;;;;23.42;46.49;100106.16;4937538;29;20217;-72
2021/07/30 10:40:43;;;;;;;3.72;2.08;;;;;;;23.69;47.21;100095.56;4947312;29;20228;-74
2021/07/30 10:43:10;;;;;;;7.47;2.17;;;;;;;24.00;46.07;100101.59;4917335;29;20207;-75
2021/07/30 10:45:35;;;;;;;3.80;1.88;;;;;;;23.50;46.38;100099.53;4948192;29;20230;-74
2021/07/30 10:48:13;;;;;;;3.53;2.00;;;;;;;23.65;46.44;100096.69;4963516;28;20215;-73
2021/07/30 10:50:45;;;;;;;5.55;2.08;;;;;;;23.94;47.56;100087.63;4967234;28;20242;-75
2021/07/30 10:53:39;;;;;;;4.38;2.40;;;;;;;23.80;45.69;100082.66;4949686;28;20267;-72
2021/07/30 10:56:07;;;;;;;4.43;2.20;;;;;;;23.97;47.46;100082.13;4943631;28;20233;-74
2021/07/30 10:58:39;;;;;;;4.53;2.08;;;;;;;24.08;46.37;100083.06;4933308;29;20219;-73
2021/07/30 11:01:05;;;;;;;5.78;2.53;;;;;;;23.94;45.00;100090.38;4947966;29;20274;-75
2021/07/30 11:06:26;;;;;;;4.20;2.35;;;;;;;24.02;47.87;100085.38;4952404;28;20231;-74
2021/07/30 11:09:06;;;;;;;7.53;2.50;;;;;;;24.29;46.92;100089.75;4933124;29;20187;-73
2021/07/30 11:11:57;;;;;;;4.22;2.30;;;;;;;24.49;47.82;100077.34;4933651;28;20283;-74
2021/07/30 11:14:29;;;;;;;5.32;2.45;;;;;;;24.37;46.97;100085.91;4953100;28;20270;-75
2021/07/30 11:17:00;;;;;;;4.28;2.22;;;;;;;24.66;45.97;100076.75;4933463;28;20727;-74
2021/07/30 11:19:35;;;;;;;6.13;2.30;;;;;;;24.87;45.93;100077.78;4933235;29;20215;-73
2021/07/30 11:22:05;;;;;;;4.38;2.13;;;;;;;25.29;44.23;100067.91;4935709;29;20223;-74
2021/07/30 11:24:40;;;;;;;4.82;2.10;;;;;;;24.28;45.84;100079.81;4935779;29;20189;-73
2021/07/30 11:27:14;;;;;;;5.28;2.40;;;;;;;24.74;46.64;100079.22;4949094;28;20286;-74
2021/07/30 11:29:49;;;;;;;5.55;2.50;;;;;;;24.65;47.30;100069.59;4931703;29;20686;-72